createdAt,value
2019-02-05T00:01:00.332Z,12.57
2019-02-05T00:03:27.818Z,14.13
2019-02-05T00:05:56.048Z,11.43
2019-02-05T00:08:24.113Z,12.10
2019-02-05T00:10:52.355Z,13.07
2019-02-05T00:13:19.809Z,14.53
2019-02-05T00:15:47.270Z,12.10
2019-02-05T00:18:14.741Z,11.77
2019-02-05T00:20:42.201Z,16.33
2019-02-05T00:23:09.669Z,15.33
2019-02-05T00:25:37.120Z,11.20
2019-02-05T00:28:04.691Z,12.63
2019-02-05T00:30:32.243Z,12.63
2019-02-05T00:32:59.810Z,14.87
2019-02-05T00:35:27.284Z,15.70
2019-02-05T00:37:54.757Z,13.90
2019-02-05T00:40:23.397Z,15.00
2019-02-05T00:42:50.857Z,13.73
2019-02-05T00:45:18.449Z,14.70
2019-02-05T00:47:45.911Z,17.50
2019-02-05T00:50:13.483Z,14.63
2019-02-05T00:52:41.034Z,16.47
2019-02-05T00:55:10.128Z,17.23
2019-02-05T00:57:37.608Z,14.10
2019-02-05T01:00:20.816Z,16.40
2019-02-05T01:02:48.284Z,15.13
2019-02-05T01:05:15.842Z,14.93
2019-02-05T01:07:43.405Z,13.43
2019-02-05T01:10:10.872Z,15.83
2019-02-05T01:12:38.330Z,15.87
2019-02-05T01:15:14.162Z,17.03
2019-02-05T01:17:41.631Z,12.33
2019-02-05T01:20:09.193Z,15.13
2019-02-05T01:22:36.672Z,14.77
2019-02-05T01:25:04.240Z,18.20
2019-02-05T01:27:32.298Z,16.57
2019-02-05T01:29:59.873Z,19.53
2019-02-05T01:32:27.330Z,19.60
2019-02-05T01:34:54.789Z,14.40
2019-02-05T01:37:22.361Z,18.57
2019-02-05T01:39:49.811Z,17.33
2019-02-05T01:42:17.281Z,15.97
2019-02-05T01:44:44.744Z,14.73
2019-02-05T01:47:12.307Z,16.27
2019-02-05T01:49:39.776Z,19.17
2019-02-05T01:52:07.663Z,14.07
2019-02-05T01:54:35.138Z,16.00
2019-02-05T01:57:04.310Z,17.33
2019-02-05T01:59:31.774Z,14.93
2019-02-05T02:01:59.249Z,14.60
2019-02-05T02:04:27.479Z,15.57
2019-02-05T02:06:54.954Z,16.17
2019-02-05T02:09:22.427Z,15.40
2019-02-05T02:11:49.907Z,16.42
2019-02-05T02:14:17.361Z,16.07
2019-02-05T02:16:44.809Z,13.67
2019-02-05T02:19:12.373Z,17.47
2019-02-05T02:21:39.958Z,17.43
2019-02-05T02:24:07.533Z,17.77
2019-02-05T02:26:35.083Z,14.90
2019-02-05T02:29:03.609Z,15.67
2019-02-05T02:31:31.134Z,20.10
2019-02-05T02:33:58.688Z,20.20
2019-02-05T02:36:26.156Z,17.20
2019-02-05T02:38:53.637Z,15.17
2019-02-05T02:41:22.385Z,18.40
2019-02-05T02:43:49.962Z,20.67
2019-02-05T02:46:17.430Z,19.43
2019-02-05T02:48:45.003Z,16.53
2019-02-05T02:51:12.477Z,16.43
2019-02-05T02:53:40.940Z,16.57
2019-02-05T02:56:08.401Z,14.97
2019-02-05T02:58:35.934Z,16.93
2019-02-05T03:01:04.340Z,14.57
2019-02-05T03:03:31.821Z,15.93
2019-02-05T03:05:59.287Z,12.57
2019-02-05T03:08:27.518Z,14.00
2019-02-05T03:10:54.990Z,19.10
2019-02-05T03:13:22.474Z,14.07
2019-02-05T03:15:50.716Z,16.07
2019-02-05T03:18:18.198Z,15.03
2019-02-05T03:20:45.686Z,14.93
2019-02-05T03:23:13.153Z,16.10
2019-02-05T03:25:40.711Z,20.33
2019-02-05T03:28:08.967Z,17.20
2019-02-05T03:30:36.427Z,16.03
2019-02-05T03:33:04.861Z,15.47
2019-02-05T03:35:33.127Z,18.50
2019-02-05T03:38:00.601Z,17.70
2019-02-05T03:43:21.972Z,28.30
2019-02-05T03:45:49.454Z,23.70
2019-02-05T03:48:16.918Z,23.40
2019-02-05T03:50:46.158Z,22.10
2019-02-05T03:53:31.839Z,18.53
2019-02-05T03:56:01.723Z,19.23
2019-02-05T04:01:25.379Z,27.27
2019-02-05T04:07:21.480Z,29.23
2019-02-05T04:10:02.602Z,20.53
2019-02-05T04:12:32.533Z,19.27
2019-02-05T04:15:07.638Z,23.67
2019-02-05T04:17:41.047Z,23.37
2019-02-05T04:20:34.216Z,17.53
2019-02-05T04:23:21.091Z,17.60
2019-02-05T04:25:49.355Z,20.57
2019-02-05T04:28:17.772Z,20.63
2019-02-05T04:33:54.087Z,27.40
2019-02-05T04:36:32.200Z,24.50
2019-02-05T04:39:02.618Z,21.80
2019-02-05T04:41:35.666Z,21.67
2019-02-05T04:44:06.352Z,20.83
2019-02-05T04:46:42.609Z,23.63
2019-02-05T04:49:17.478Z,20.87
2019-02-05T04:52:03.517Z,20.77
2019-02-05T04:54:31.778Z,19.83
2019-02-05T04:57:10.729Z,21.13
2019-02-05T04:59:47.153Z,22.60
2019-02-05T05:02:16.691Z,23.35
2019-02-05T05:04:53.827Z,23.50
2019-02-05T05:07:36.459Z,22.40
2019-02-05T05:10:03.965Z,22.80
2019-02-05T05:12:31.419Z,26.87
2019-02-05T05:14:58.907Z,22.97
2019-02-05T05:17:26.476Z,32.43
2019-02-05T05:19:53.956Z,27.90
2019-02-05T05:22:21.514Z,21.93
2019-02-05T05:24:49.196Z,29.43
2019-02-05T05:27:16.641Z,29.12
2019-02-05T05:29:44.930Z,32.00
2019-02-05T05:32:12.402Z,32.73
2019-02-05T05:34:40.660Z,30.10
2019-02-05T05:37:07.632Z,30.80
2019-02-05T05:39:35.945Z,32.97
2019-02-05T05:42:03.836Z,33.53
2019-02-05T05:44:31.297Z,34.07
2019-02-05T05:46:58.882Z,29.73
2019-02-05T05:49:26.439Z,33.43
2019-02-05T05:51:54.449Z,25.13
2019-02-05T05:54:22.705Z,30.13
2019-02-05T05:56:50.171Z,25.07
2019-02-05T05:59:17.632Z,32.57
2019-02-05T06:01:45.862Z,29.90
2019-02-05T06:04:13.320Z,28.63
2019-02-05T06:06:41.308Z,25.07
2019-02-05T06:09:08.769Z,31.30
2019-02-05T06:11:36.234Z,26.23
2019-02-05T06:14:04.659Z,28.40
2019-02-05T06:16:32.891Z,23.33
2019-02-05T06:19:00.362Z,26.97
2019-02-05T06:21:27.838Z,24.77
2019-02-05T06:23:55.315Z,25.57
2019-02-05T06:26:23.603Z,26.73
2019-02-05T06:28:51.052Z,25.07
2019-02-05T06:31:18.629Z,29.63
2019-02-05T06:33:46.113Z,23.73
2019-02-05T06:36:14.334Z,26.23
2019-02-05T06:38:44.617Z,26.77
2019-02-05T06:41:10.143Z,22.53
2019-02-05T06:43:37.676Z,24.90
2019-02-05T06:46:05.314Z,30.10
2019-02-05T06:48:32.783Z,26.80
2019-02-05T06:51:00.263Z,29.10
2019-02-05T06:53:27.739Z,32.87
2019-02-05T06:55:56.107Z,29.67
2019-02-05T06:58:23.677Z,24.50
2019-02-05T07:00:51.245Z,25.13
2019-02-05T07:03:21.366Z,26.93
2019-02-05T07:05:48.995Z,32.77
2019-02-05T07:08:16.547Z,30.43
2019-02-05T07:10:44.346Z,33.20
2019-02-05T07:13:11.991Z,34.40
2019-02-05T07:15:39.544Z,29.37
2019-02-05T07:18:07.085Z,33.33
2019-02-05T07:20:34.651Z,30.90
2019-02-05T07:23:02.209Z,40.30
2019-02-05T07:25:29.764Z,35.50
2019-02-05T07:27:58.080Z,29.63
2019-02-05T07:30:25.649Z,25.47
2019-02-05T07:32:53.209Z,33.30
2019-02-05T07:35:20.740Z,34.10
2019-02-05T07:37:49.058Z,32.07
2019-02-05T07:40:16.633Z,27.00
2019-02-05T07:42:44.303Z,26.80
2019-02-05T07:45:11.871Z,28.60
2019-02-05T07:47:39.407Z,29.53
2019-02-05T07:50:09.861Z,21.23
2019-02-05T07:52:37.427Z,25.50
2019-02-05T07:55:05.095Z,22.83
2019-02-05T07:57:32.623Z,22.43
2019-02-05T08:00:00.234Z,25.07
2019-02-05T08:02:28.695Z,24.07
2019-02-05T08:04:56.253Z,21.13
2019-02-05T08:07:23.810Z,22.07
2019-02-05T08:09:51.366Z,23.47
2019-02-05T08:12:18.923Z,20.50
2019-02-05T08:14:46.471Z,19.67
2019-02-05T08:17:14.079Z,22.97
2019-02-05T08:19:41.641Z,27.77
2019-02-05T08:22:09.712Z,22.37
2019-02-05T08:24:36.883Z,23.03
2019-02-05T08:27:04.414Z,24.30
2019-02-05T08:29:32.012Z,23.77
2019-02-05T08:31:59.584Z,28.47
2019-02-05T08:34:27.135Z,24.50
2019-02-05T08:36:54.677Z,22.57
2019-02-05T08:39:22.257Z,23.07
2019-02-05T08:41:49.821Z,24.90
2019-02-05T08:44:17.943Z,25.33
2019-02-05T08:46:46.284Z,35.97
2019-02-05T08:49:13.844Z,28.47
2019-02-05T08:51:41.412Z,31.00
2019-02-05T08:54:08.967Z,31.40
2019-02-05T08:56:36.536Z,27.07
2019-02-05T08:59:04.112Z,30.40
2019-02-05T09:01:31.674Z,27.33
2019-02-05T09:03:59.260Z,33.97
2019-02-05T09:06:26.904Z,24.97
2019-02-05T09:08:54.458Z,23.13
2019-02-05T09:11:22.004Z,24.13
2019-02-05T09:13:49.575Z,30.23
2019-02-05T09:16:17.156Z,24.07
2019-02-05T09:18:44.695Z,27.77
2019-02-05T09:21:12.254Z,27.05
2019-02-05T09:23:39.803Z,25.23
2019-02-05T09:26:08.114Z,29.33
2019-02-05T09:28:35.657Z,32.13
2019-02-05T09:31:04.743Z,25.30
2019-02-05T09:33:32.292Z,27.67
2019-02-05T09:36:00.628Z,26.47
2019-02-05T09:38:28.209Z,42.10
2019-02-05T09:40:55.909Z,23.13
2019-02-05T09:43:24.131Z,36.13
2019-02-05T09:45:51.700Z,32.03
2019-02-05T09:48:19.261Z,28.10
2019-02-05T09:50:46.798Z,26.23
2019-02-05T09:53:14.357Z,24.70
2019-02-05T09:55:42.665Z,28.97
2019-02-05T09:58:10.228Z,27.80
2019-02-05T10:00:37.807Z,27.20
2019-02-05T10:03:05.366Z,30.83
2019-02-05T10:05:32.908Z,29.60
2019-02-05T10:08:00.470Z,30.17
2019-02-05T10:10:28.008Z,35.10
2019-02-05T10:12:57.051Z,36.40
2019-02-05T10:15:24.744Z,25.57
2019-02-05T10:17:52.358Z,29.27
2019-02-05T10:20:19.955Z,52.10
2019-02-05T10:22:47.516Z,31.93
2019-02-05T10:25:15.126Z,35.00
2019-02-05T10:27:42.648Z,31.70
2019-02-05T10:30:18.692Z,34.17
2019-02-05T10:32:46.272Z,27.87
2019-02-05T10:35:13.836Z,37.50
2019-02-05T10:37:41.423Z,36.77
2019-02-05T10:40:09.773Z,31.03
2019-02-05T10:42:37.308Z,37.37
2019-02-05T10:45:05.559Z,40.97
2019-02-05T10:47:33.096Z,34.87
2019-02-05T10:50:00.758Z,34.13
2019-02-05T10:52:28.323Z,34.90
2019-02-05T10:54:55.907Z,34.57
2019-02-05T10:57:23.546Z,30.67
2019-02-05T10:59:51.101Z,45.47
2019-02-05T11:02:18.753Z,39.03
2019-02-05T11:04:46.341Z,39.63
2019-02-05T11:07:13.885Z,37.10
2019-02-05T11:09:41.472Z,29.33
2019-02-05T11:12:09.711Z,37.17
2019-02-05T11:14:37.285Z,52.23
2019-02-05T11:17:04.890Z,50.27
2019-02-05T11:19:32.435Z,41.23
2019-02-05T11:21:59.993Z,42.50
2019-02-05T11:24:27.533Z,34.10
2019-02-05T11:26:55.148Z,39.60
2019-02-05T11:29:22.807Z,34.83
2019-02-05T11:31:50.359Z,30.73
2019-02-05T11:34:18.253Z,27.43
2019-02-05T11:36:45.809Z,44.93
2019-02-05T11:39:13.359Z,34.67
2019-02-05T11:41:40.936Z,30.90
2019-02-05T11:44:08.484Z,33.67
2019-02-05T11:46:36.058Z,39.07
2019-02-05T11:49:04.644Z,35.43
2019-02-05T11:51:32.192Z,34.57
2019-02-05T11:53:59.763Z,29.40
2019-02-05T11:56:27.310Z,35.63
2019-02-05T11:58:54.876Z,34.63
2019-02-05T12:01:22.471Z,38.43
2019-02-05T12:03:50.016Z,29.73
2019-02-05T12:06:17.581Z,30.07
2019-02-05T12:08:45.121Z,34.07
2019-02-05T12:11:12.699Z,31.43
2019-02-05T12:13:40.253Z,30.33
2019-02-05T12:16:07.793Z,30.20
2019-02-05T12:18:36.208Z,26.03
2019-02-05T12:21:03.739Z,34.03
2019-02-05T12:23:32.076Z,36.77
2019-02-05T12:25:59.631Z,29.17
2019-02-05T12:28:27.217Z,28.87
2019-02-05T12:30:54.773Z,28.03
2019-02-05T12:33:22.704Z,34.97
2019-02-05T12:35:51.003Z,28.77
2019-02-05T12:38:18.563Z,36.07
2019-02-05T12:40:47.295Z,47.10
2019-02-05T12:43:14.835Z,31.13
2019-02-05T12:45:42.384Z,28.63
2019-02-05T12:48:09.911Z,34.13
2019-02-05T12:50:37.439Z,32.03
2019-02-05T12:53:05.034Z,30.43
2019-02-05T12:55:32.597Z,27.57
2019-02-05T12:58:00.159Z,25.90
2019-02-05T13:00:37.745Z,34.67
2019-02-05T13:03:05.271Z,26.80
2019-02-05T13:05:32.817Z,28.35
2019-02-05T13:08:00.399Z,24.83
2019-02-05T13:10:31.043Z,25.50
2019-02-05T13:12:59.304Z,33.90
2019-02-05T13:15:26.934Z,32.10
2019-02-05T13:17:54.918Z,29.67
2019-02-05T13:20:23.459Z,28.20
2019-02-05T13:22:51.107Z,35.43
2019-02-05T13:25:19.508Z,35.63
2019-02-05T13:27:47.061Z,37.90
2019-02-05T13:30:14.588Z,28.47
2019-02-05T13:32:42.892Z,32.80
2019-02-05T13:35:10.417Z,48.83
2019-02-05T13:37:37.954Z,37.13
2019-02-05T13:40:07.760Z,41.27
2019-02-05T13:42:35.285Z,38.53
2019-02-05T13:45:03.749Z,37.83
2019-02-05T13:47:31.281Z,35.60
2019-02-05T13:49:58.834Z,41.23
2019-02-05T13:52:26.886Z,43.10
2019-02-05T13:54:54.435Z,48.30
2019-02-05T13:57:22.027Z,32.33
2019-02-05T13:59:49.607Z,47.10
2019-02-05T14:02:17.146Z,51.07
2019-02-05T14:04:44.725Z,46.57
2019-02-05T14:07:12.716Z,35.43
2019-02-05T14:09:40.249Z,44.37
2019-02-05T14:12:07.807Z,43.57
2019-02-05T14:14:35.385Z,49.67
2019-02-05T14:17:03.658Z,50.97
2019-02-05T14:19:31.639Z,43.90
2019-02-05T14:21:59.171Z,36.23
2019-02-05T14:24:27.468Z,39.93
2019-02-05T14:26:55.040Z,48.87
2019-02-05T14:29:22.600Z,41.77
2019-02-05T14:31:50.180Z,35.03
2019-02-05T14:34:17.731Z,39.87
2019-02-05T14:36:45.264Z,45.40
2019-02-05T14:39:13.605Z,41.60
2019-02-05T14:41:41.147Z,39.43
2019-02-05T14:44:08.712Z,41.67
2019-02-05T14:46:36.270Z,45.23
2019-02-05T14:49:04.958Z,40.50
2019-02-05T14:51:32.679Z,39.13
2019-02-05T14:54:00.307Z,36.10
2019-02-05T14:56:28.079Z,37.67
2019-02-05T14:58:55.640Z,42.67
2019-02-05T15:01:23.178Z,39.60
2019-02-05T15:03:50.757Z,33.47
2019-02-05T15:06:18.316Z,36.93
2019-02-05T15:08:46.148Z,35.53
2019-02-05T15:11:14.468Z,44.13
2019-02-05T15:13:42.014Z,32.70
2019-02-05T15:16:10.305Z,43.20
2019-02-05T15:18:37.848Z,40.60
2019-02-05T15:21:06.169Z,34.87
2019-02-05T15:23:33.731Z,38.77
2019-02-05T15:26:01.294Z,37.50
2019-02-05T15:28:28.872Z,35.10
2019-02-05T15:30:56.447Z,32.50
2019-02-05T15:33:30.088Z,34.07
2019-02-05T15:35:59.306Z,32.27
2019-02-05T15:38:26.911Z,31.07
2019-02-05T15:40:54.535Z,39.33
2019-02-05T15:43:22.134Z,34.20
2019-02-05T15:45:49.684Z,35.90
2019-02-05T15:48:17.243Z,27.53
2019-02-05T15:50:44.769Z,34.47
2019-02-05T15:53:13.096Z,37.05
2019-02-05T15:55:40.688Z,33.43
2019-02-05T15:58:08.231Z,30.20
2019-02-05T16:00:35.788Z,35.07
2019-02-05T16:03:04.761Z,33.47
2019-02-05T16:05:32.358Z,34.63
2019-02-05T16:07:59.909Z,25.97
2019-02-05T16:10:27.453Z,26.20
2019-02-05T16:12:55.031Z,24.10
2019-02-05T16:15:22.583Z,34.43
2019-02-05T16:17:50.110Z,35.93
2019-02-05T16:20:17.651Z,29.67
2019-02-05T16:22:45.199Z,30.57
2019-02-05T16:25:13.295Z,32.67
2019-02-05T16:27:40.942Z,30.97
2019-02-05T16:30:19.152Z,32.40
2019-02-05T16:32:46.719Z,30.40
2019-02-05T16:35:14.269Z,26.93
2019-02-05T16:37:41.816Z,33.83
2019-02-05T16:40:12.195Z,30.73
2019-02-05T16:42:39.819Z,35.57
2019-02-05T16:45:07.491Z,32.37
2019-02-05T16:47:35.024Z,39.13
2019-02-05T16:50:02.625Z,35.90
2019-02-05T16:52:30.417Z,36.43
2019-02-05T16:54:57.958Z,31.40
2019-02-05T16:57:25.519Z,30.67
2019-02-05T16:59:53.894Z,33.20
2019-02-05T17:02:28.660Z,36.60
2019-02-05T17:04:49.151Z,30.13
2019-02-05T17:07:16.691Z,38.77
2019-02-05T17:09:44.251Z,33.03
2019-02-05T17:12:11.775Z,28.10
2019-02-05T17:14:40.089Z,30.90
2019-02-05T17:17:07.628Z,33.57
2019-02-05T17:19:35.205Z,32.93
2019-02-05T17:22:03.710Z,41.35
2019-02-05T17:24:31.244Z,35.20
2019-02-05T17:26:59.572Z,31.37
2019-02-05T17:29:27.107Z,37.00
2019-02-05T17:31:54.648Z,26.57
2019-02-05T17:34:25.359Z,32.20
2019-02-05T17:36:53.711Z,40.37
2019-02-05T17:39:21.261Z,39.85
2019-02-05T17:41:48.793Z,30.27
2019-02-05T17:44:17.099Z,35.23
2019-02-05T17:46:44.684Z,25.87
2019-02-05T17:49:12.346Z,34.23
2019-02-05T17:51:39.802Z,28.73
2019-02-05T17:54:07.476Z,36.57
2019-02-05T17:56:35.451Z,25.83
2019-02-05T17:59:03.828Z,31.85
2019-02-05T18:01:31.384Z,32.07
2019-02-05T18:03:58.962Z,29.57
2019-02-05T18:06:26.631Z,32.90
2019-02-05T18:08:54.159Z,31.47
2019-02-05T18:11:21.712Z,30.00
2019-02-05T18:13:50.025Z,34.87
2019-02-05T18:16:17.599Z,34.37
2019-02-05T18:18:45.144Z,33.27
2019-02-05T18:21:12.680Z,28.43
2019-02-05T18:23:41.000Z,30.63
2019-02-05T18:26:08.544Z,26.10
2019-02-05T18:28:36.126Z,32.23
2019-02-05T18:31:04.492Z,26.90
2019-02-05T18:33:32.023Z,27.87
2019-02-05T18:36:00.336Z,29.77
2019-02-05T18:38:29.881Z,23.10
2019-02-05T18:40:57.432Z,31.63
2019-02-05T18:43:24.998Z,30.23
2019-02-05T18:45:53.323Z,30.03
2019-02-05T18:48:20.858Z,30.30
2019-02-05T18:50:48.403Z,24.57
2019-02-05T18:53:15.930Z,29.90
2019-02-05T18:55:44.252Z,29.73
2019-02-05T18:58:11.810Z,33.17
2019-02-05T19:00:41.204Z,29.30
2019-02-05T19:03:15.532Z,31.20
2019-02-05T19:05:37.081Z,27.37
2019-02-05T19:08:05.379Z,30.53
2019-02-05T19:10:32.920Z,27.33
2019-02-05T19:13:00.477Z,31.40
2019-02-05T19:15:30.822Z,29.53
2019-02-05T19:17:58.488Z,29.77
2019-02-05T19:20:26.950Z,25.60
2019-02-05T19:22:54.513Z,29.13
2019-02-05T19:25:24.682Z,27.13
2019-02-05T19:27:53.020Z,28.53
2019-02-05T19:30:20.563Z,29.07
2019-02-05T19:32:48.536Z,30.40
2019-02-05T19:35:16.102Z,29.33
2019-02-05T19:37:44.408Z,27.67
2019-02-05T19:40:11.944Z,27.90
2019-02-05T19:42:39.472Z,28.17
2019-02-05T19:45:10.531Z,28.83
2019-02-05T19:47:39.303Z,28.57
2019-02-05T19:50:06.410Z,23.70
2019-02-05T19:52:34.099Z,30.00
2019-02-05T19:55:01.655Z,26.60
2019-02-05T19:57:29.212Z,30.57
2019-02-05T19:59:56.977Z,30.33
2019-02-05T20:02:24.532Z,30.07
2019-02-05T20:04:52.127Z,26.43
2019-02-05T20:07:19.704Z,25.63
2019-02-05T20:09:47.231Z,29.63
2019-02-05T20:12:14.772Z,28.50
2019-02-05T20:14:42.346Z,26.60
2019-02-05T20:17:09.938Z,32.00
2019-02-05T20:19:37.596Z,32.27
2019-02-05T20:22:05.180Z,26.77
2019-02-05T20:24:33.462Z,24.93
2019-02-05T20:27:01.010Z,30.17
2019-02-05T20:29:28.549Z,23.07
2019-02-05T20:31:56.082Z,27.77
2019-02-05T20:34:23.649Z,24.97
2019-02-05T20:36:51.950Z,27.47
2019-02-05T20:39:19.504Z,26.93
2019-02-05T20:41:47.820Z,22.27
2019-02-05T20:44:15.383Z,27.97
2019-02-05T20:46:42.916Z,24.13
2019-02-05T20:49:11.226Z,27.35
2019-02-05T20:51:38.807Z,25.87
2019-02-05T20:54:07.184Z,23.57
2019-02-05T20:56:34.721Z,24.27
2019-02-05T20:59:02.303Z,20.37
2019-02-05T21:01:29.840Z,24.80
2019-02-05T21:04:01.198Z,21.53
2019-02-05T21:06:25.728Z,23.13
2019-02-05T21:08:53.275Z,21.23
2019-02-05T21:11:20.807Z,21.10
2019-02-05T21:13:49.104Z,21.70
2019-02-05T21:16:16.651Z,23.07
2019-02-05T21:18:44.963Z,22.17
2019-02-05T21:21:12.514Z,20.47
2019-02-05T21:23:40.059Z,22.83
2019-02-05T21:26:08.380Z,21.80
2019-02-05T21:28:37.466Z,23.50
2019-02-05T21:31:05.047Z,24.90
2019-02-05T21:33:32.600Z,22.53
2019-02-05T21:36:00.125Z,20.87
2019-02-05T21:38:28.684Z,20.33
2019-02-05T21:40:57.031Z,21.90
2019-02-05T21:43:24.557Z,20.23
2019-02-05T21:45:53.932Z,22.03
2019-02-05T21:48:26.655Z,20.07
2019-02-05T21:50:54.985Z,19.83
2019-02-05T21:53:22.639Z,16.75
2019-02-05T21:55:50.338Z,17.40
2019-02-05T21:58:17.924Z,18.47
2019-02-05T22:00:46.317Z,19.20
2019-02-05T22:03:18.165Z,19.73
2019-02-05T22:05:45.783Z,19.40
2019-02-05T22:08:13.449Z,18.63
2019-02-05T22:10:41.767Z,17.63
2019-02-05T22:13:09.383Z,20.75
2019-02-05T22:15:36.940Z,18.90
2019-02-05T22:18:04.485Z,18.80
2019-02-05T22:20:32.079Z,19.30
2019-02-05T22:22:59.623Z,15.93
2019-02-05T22:25:27.200Z,18.87
2019-02-05T22:27:54.759Z,18.03
2019-02-05T22:30:22.747Z,17.50
2019-02-05T22:32:55.007Z,21.53
2019-02-05T22:35:23.520Z,18.17
2019-02-05T22:37:51.892Z,17.13
2019-02-05T22:40:19.467Z,18.20
2019-02-05T22:42:47.008Z,19.83
2019-02-05T22:45:14.557Z,16.40
2019-02-05T22:47:42.101Z,15.93
2019-02-05T22:50:13.285Z,16.83
2019-02-05T22:52:40.836Z,19.20
2019-02-05T22:55:09.175Z,17.87
2019-02-05T22:57:37.512Z,20.80
2019-02-05T23:00:09.433Z,19.00
2019-02-05T23:02:39.088Z,17.12
2019-02-05T23:05:10.684Z,16.67
2019-02-05T23:07:38.222Z,16.87
2019-02-05T23:10:12.115Z,15.77
2019-02-05T23:12:39.667Z,19.43
2019-02-05T23:15:08.642Z,16.13
2019-02-05T23:17:36.969Z,17.43
2019-02-05T23:20:04.530Z,16.37
2019-02-05T23:22:32.027Z,17.17
2019-02-05T23:24:59.495Z,16.87
2019-02-05T23:27:26.992Z,19.00
2019-02-05T23:29:54.433Z,21.13
2019-02-05T23:32:22.659Z,17.53
2019-02-05T23:35:01.818Z,17.13
2019-02-05T23:37:17.613Z,15.97
2019-02-05T23:39:45.078Z,15.10
2019-02-05T23:42:12.635Z,18.52
2019-02-05T23:44:40.105Z,16.40
2019-02-05T23:47:07.669Z,15.77
2019-02-05T23:49:35.120Z,15.33
2019-02-05T23:52:02.593Z,17.80
2019-02-05T23:54:30.150Z,14.93
2019-02-05T23:56:57.709Z,18.47
2019-02-05T23:59:25.985Z,15.17
